createdAt,value
2022-12-05T00:01:44.009Z,32.80
2022-12-05T00:04:14.919Z,30.20
2022-12-05T00:06:43.418Z,33.05
2022-12-05T00:09:12.957Z,33.20
2022-12-05T00:11:42.805Z,33.45
2022-12-05T00:14:11.799Z,33.60
2022-12-05T00:16:41.659Z,33.10
2022-12-05T00:19:12.246Z,32.42
2022-12-05T00:21:40.167Z,33.17
2022-12-05T00:24:11.120Z,31.05
2022-12-05T00:26:38.748Z,32.72
2022-12-05T00:29:06.270Z,32.83
2022-12-05T00:31:34.295Z,34.80
2022-12-05T00:34:03.513Z,38.38
2022-12-05T00:36:33.278Z,35.13
2022-12-05T00:39:03.710Z,36.70
2022-12-05T00:41:31.651Z,37.58
2022-12-05T00:44:01.668Z,34.40
2022-12-05T00:46:30.880Z,35.15
2022-12-05T00:48:59.917Z,38.17
2022-12-05T00:51:30.931Z,36.45
2022-12-05T00:54:00.449Z,37.40
2022-12-05T00:56:29.267Z,39.70
2022-12-05T00:58:58.070Z,38.53
2022-12-05T01:01:30.303Z,35.92
2022-12-05T01:03:59.564Z,37.78
2022-12-05T01:06:28.124Z,39.90
2022-12-05T01:08:56.786Z,42.33
2022-12-05T01:11:25.905Z,42.70
2022-12-05T01:13:54.217Z,37.13
2022-12-05T01:16:25.054Z,38.38
2022-12-05T01:18:53.129Z,40.83
2022-12-05T01:21:21.705Z,38.22
2022-12-05T01:23:49.835Z,43.47
2022-12-05T01:26:19.148Z,44.53
2022-12-05T01:28:47.240Z,41.00
2022-12-05T01:31:26.744Z,40.67
2022-12-05T01:33:56.071Z,39.65
2022-12-05T01:36:25.414Z,39.13
2022-12-05T01:38:53.258Z,41.92
2022-12-05T01:41:33.638Z,37.38
2022-12-05T01:44:06.930Z,36.97
2022-12-05T01:46:37.319Z,36.75
2022-12-05T01:49:12.093Z,37.50
2022-12-05T01:51:45.530Z,36.17
2022-12-05T01:54:15.236Z,40.33
2022-12-05T01:56:46.798Z,36.35
2022-12-05T01:59:15.036Z,38.92
2022-12-05T02:01:42.617Z,36.80
2022-12-05T02:04:10.798Z,35.08
2022-12-05T02:06:38.429Z,36.22
2022-12-05T02:09:06.233Z,32.28
2022-12-05T02:11:35.388Z,33.20
2022-12-05T02:14:31.306Z,31.52
2022-12-05T02:17:10.728Z,29.73
2022-12-05T02:19:50.619Z,29.70
2022-12-05T02:22:46.289Z,30.23
2022-12-05T02:25:20.173Z,31.15
2022-12-05T02:28:17.707Z,31.98
2022-12-05T02:30:58.352Z,32.13
2022-12-05T02:33:37.694Z,30.05
2022-12-05T02:36:16.437Z,26.73
2022-12-05T02:38:52.387Z,26.40
2022-12-05T02:41:37.607Z,27.88
2022-12-05T02:44:34.137Z,25.20
2022-12-05T02:47:03.237Z,29.55
2022-12-05T02:49:35.428Z,30.13
2022-12-05T02:52:08.593Z,28.40
2022-12-05T02:54:40.358Z,26.35
2022-12-05T02:57:10.647Z,26.30
2022-12-05T02:59:38.183Z,29.83
2022-12-05T03:02:08.127Z,27.35
2022-12-05T03:04:35.838Z,26.85
2022-12-05T03:07:12.278Z,27.00
2022-12-05T03:09:42.372Z,26.90
2022-12-05T03:12:26.836Z,26.77
2022-12-05T03:14:59.629Z,27.23
2022-12-05T03:17:35.495Z,26.88
2022-12-05T03:20:20.965Z,24.38
2022-12-05T03:22:57.155Z,25.73
2022-12-05T03:25:32.183Z,24.58
2022-12-05T03:28:06.826Z,25.02
2022-12-05T03:30:38.180Z,25.40
2022-12-05T03:33:10.912Z,26.50
2022-12-05T03:36:02.922Z,24.92
2022-12-05T03:38:40.486Z,25.27
2022-12-05T03:41:25.992Z,22.13
2022-12-05T03:44:01.002Z,23.73
2022-12-05T03:46:56.067Z,24.08
2022-12-05T03:49:44.674Z,21.70
2022-12-05T03:53:11.301Z,26.23
2022-12-05T03:55:36.345Z,23.83
2022-12-05T03:58:21.932Z,21.58
2022-12-05T04:00:54.053Z,21.88
2022-12-05T04:03:39.362Z,23.80
2022-12-05T04:06:26.195Z,21.98
2022-12-05T04:09:23.846Z,21.33
2022-12-05T04:11:57.207Z,23.48
2022-12-05T04:14:37.565Z,19.70
2022-12-05T04:17:09.481Z,21.65
2022-12-05T04:20:13.976Z,22.38
2022-12-05T04:22:43.003Z,21.38
2022-12-05T04:25:32.185Z,22.13
2022-12-05T04:28:22.026Z,22.15
2022-12-05T04:31:02.025Z,20.30
2022-12-05T04:33:40.731Z,22.98
2022-12-05T04:36:15.551Z,20.45
2022-12-05T04:38:49.012Z,19.63
2022-12-05T04:41:22.064Z,21.85
2022-12-05T04:43:51.437Z,20.63
2022-12-05T04:46:21.728Z,19.60
2022-12-05T04:49:03.177Z,19.35
2022-12-05T04:51:34.796Z,20.45
2022-12-05T04:54:07.182Z,19.55
2022-12-05T04:56:38.318Z,18.83
2022-12-05T04:59:05.966Z,20.85
2022-12-05T05:01:43.439Z,20.35
2022-12-05T05:04:21.814Z,19.58
2022-12-05T05:06:49.516Z,20.42
2022-12-05T05:09:17.055Z,21.80
2022-12-05T05:11:44.644Z,20.23
2022-12-05T05:14:12.105Z,19.58
2022-12-05T05:20:27.969Z,21.25
2022-12-05T05:22:57.025Z,21.35
2022-12-05T05:25:25.839Z,23.95
2022-12-05T05:27:55.750Z,21.42
2022-12-05T05:30:24.988Z,18.73
2022-12-05T05:32:52.639Z,21.45
2022-12-05T05:35:21.638Z,22.85
2022-12-05T05:37:49.246Z,20.50
2022-12-05T05:40:16.990Z,19.98
2022-12-05T05:42:46.661Z,25.42
2022-12-05T05:45:15.492Z,20.85
2022-12-05T05:47:43.454Z,23.73
2022-12-05T05:50:16.350Z,23.70
2022-12-05T05:52:47.260Z,21.92
2022-12-05T05:55:14.658Z,20.33
2022-12-05T05:57:42.262Z,22.55
2022-12-05T06:00:10.599Z,20.60
2022-12-05T06:02:38.293Z,21.23
2022-12-05T06:05:06.200Z,20.33
2022-12-05T06:07:33.736Z,20.98
2022-12-05T06:10:01.762Z,22.15
2022-12-05T06:12:29.628Z,21.38
2022-12-05T06:14:57.148Z,18.42
2022-12-05T06:17:24.709Z,19.02
2022-12-05T06:19:52.275Z,20.27
2022-12-05T06:22:19.778Z,21.45
2022-12-05T06:24:47.230Z,20.02
2022-12-05T06:27:14.802Z,21.25
2022-12-05T06:29:42.338Z,22.90
2022-12-05T06:32:09.940Z,25.85
2022-12-05T06:34:37.449Z,24.27
2022-12-05T06:37:05.019Z,29.17
2022-12-05T06:39:32.754Z,25.77
2022-12-05T06:42:00.266Z,22.75
2022-12-05T06:44:28.879Z,24.38
2022-12-05T06:46:56.669Z,21.27
2022-12-05T06:49:31.570Z,22.80
2022-12-05T06:52:00.417Z,21.38
2022-12-05T06:54:28.119Z,22.95
2022-12-05T06:56:55.809Z,22.48
2022-12-05T06:59:23.418Z,19.48
2022-12-05T07:01:51.553Z,19.17
2022-12-05T07:04:24.510Z,19.08
2022-12-05T07:06:53.971Z,19.98
2022-12-05T07:09:45.598Z,15.43
2022-12-05T07:12:15.170Z,16.35
2022-12-05T07:14:48.608Z,17.42
2022-12-05T07:17:21.542Z,19.17
2022-12-05T07:19:50.487Z,20.20
2022-12-05T07:22:19.465Z,18.58
2022-12-05T07:24:47.233Z,18.58
2022-12-05T07:27:15.609Z,20.58
2022-12-05T07:29:43.269Z,18.08
2022-12-05T07:32:11.079Z,19.05
2022-12-05T07:34:39.079Z,18.48
2022-12-05T07:37:09.368Z,18.48
2022-12-05T07:39:36.869Z,22.38
2022-12-05T07:42:04.469Z,20.23
2022-12-05T07:44:32.204Z,18.40
2022-12-05T07:46:59.798Z,19.25
2022-12-05T07:49:27.385Z,18.02
2022-12-05T07:51:54.849Z,18.17
2022-12-05T07:54:22.399Z,18.88
2022-12-05T07:56:49.929Z,15.80
2022-12-05T07:59:17.467Z,20.88
2022-12-05T08:01:45.249Z,18.42
2022-12-05T08:04:15.603Z,19.77
2022-12-05T08:06:43.599Z,20.63
2022-12-05T08:09:11.341Z,18.90
2022-12-05T08:11:38.979Z,18.85
2022-12-05T08:14:07.167Z,17.73
2022-12-05T08:16:34.810Z,18.08
2022-12-05T08:19:08.548Z,16.23
2022-12-05T08:21:37.339Z,21.00
2022-12-05T08:24:06.682Z,18.40
2022-12-05T08:26:35.918Z,19.70
2022-12-05T08:29:09.855Z,17.63
2022-12-05T08:31:44.629Z,18.50
2022-12-05T08:34:13.285Z,18.63
2022-12-05T08:36:41.457Z,18.95
2022-12-05T08:39:14.366Z,18.20
2022-12-05T08:41:43.608Z,15.77
2022-12-05T08:44:16.413Z,17.98
2022-12-05T08:46:46.667Z,18.50
2022-12-05T08:49:14.809Z,16.80
2022-12-05T08:51:42.998Z,16.92
2022-12-05T08:54:10.971Z,16.77
2022-12-05T08:56:38.899Z,17.58
2022-12-05T08:59:06.749Z,15.65
2022-12-05T09:01:38.742Z,17.63
2022-12-05T09:04:07.098Z,14.70
2022-12-05T09:06:36.192Z,16.80
2022-12-05T09:09:07.082Z,16.65
2022-12-05T09:11:37.391Z,15.27
2022-12-05T09:14:05.498Z,14.18
2022-12-05T09:16:38.212Z,12.85
2022-12-05T09:21:43.582Z,12.82
2022-12-05T09:24:12.900Z,12.77
2022-12-05T09:26:41.301Z,14.52
2022-12-05T09:29:15.836Z,12.93
2022-12-05T09:31:46.425Z,15.05
2022-12-05T09:34:15.359Z,11.95
2022-12-05T09:36:44.128Z,14.23
2022-12-05T09:39:12.069Z,15.20
2022-12-05T09:42:09.884Z,14.13
2022-12-05T09:44:42.570Z,14.38
2022-12-05T09:47:25.266Z,14.70
2022-12-05T09:50:17.360Z,15.27
2022-12-05T09:53:01.080Z,15.45
2022-12-05T09:56:10.375Z,12.00
2022-12-05T09:58:47.881Z,14.15
2022-12-05T10:01:30.563Z,14.52
2022-12-05T10:04:13.493Z,15.20
2022-12-05T10:06:53.109Z,16.73
2022-12-05T10:09:26.621Z,13.27
2022-12-05T10:12:03.340Z,15.65
2022-12-05T10:14:33.824Z,16.27
2022-12-05T10:17:09.479Z,14.88
2022-12-05T10:19:50.029Z,15.63
2022-12-05T10:22:25.460Z,13.20
2022-12-05T10:24:56.902Z,15.95
2022-12-05T10:27:41.023Z,12.60
2022-12-05T10:30:20.782Z,15.05
2022-12-05T10:32:55.457Z,12.65
2022-12-05T10:35:26.980Z,14.93
2022-12-05T10:38:00.927Z,15.13
2022-12-05T10:40:36.121Z,15.25
2022-12-05T10:43:08.459Z,13.23
2022-12-05T10:45:48.141Z,13.13
2022-12-05T10:48:18.783Z,13.32
2022-12-05T10:50:49.759Z,11.50
2022-12-05T10:53:26.318Z,16.25
2022-12-05T10:56:28.698Z,14.63
2022-12-05T10:58:56.465Z,14.68
2022-12-05T11:01:26.492Z,11.30
2022-12-05T11:04:00.915Z,12.15
2022-12-05T11:09:04.817Z,15.55
2022-12-05T11:11:33.941Z,15.88
2022-12-05T11:14:07.430Z,13.50
2022-12-05T11:16:38.234Z,14.43
2022-12-05T11:19:24.518Z,12.70
2022-12-05T11:21:53.964Z,13.85
2022-12-05T11:24:23.370Z,13.23
2022-12-05T11:26:51.058Z,16.75
2022-12-05T11:29:37.989Z,15.52
2022-12-05T11:32:16.805Z,19.33
2022-12-05T11:34:57.721Z,19.80
2022-12-05T11:37:31.204Z,16.55
2022-12-05T11:40:00.859Z,26.65
2022-12-05T11:42:31.395Z,65.97
2022-12-05T11:45:17.370Z,44.38
2022-12-05T11:48:10.509Z,62.00
2022-12-05T11:50:48.136Z,75.40
2022-12-05T11:53:37.887Z,70.10
2022-12-05T11:56:32.624Z,29.35
2022-12-05T11:59:12.162Z,68.38
2022-12-05T12:02:16.403Z,67.28
2022-12-05T12:05:08.008Z,31.30
2022-12-05T12:07:54.847Z,21.65
2022-12-05T12:10:25.158Z,27.17
2022-12-05T12:13:30.183Z,65.10
2022-12-05T12:16:27.484Z,67.68
2022-12-05T12:18:54.964Z,36.78
2022-12-05T12:21:38.904Z,28.10
2022-12-05T12:27:32.235Z,38.95
2022-12-05T12:30:46.156Z,33.60
2022-12-05T12:33:30.530Z,53.65
2022-12-05T12:36:33.190Z,32.50
2022-12-05T12:39:09.734Z,29.20
2022-12-05T12:41:46.937Z,28.55
2022-12-05T12:44:33.884Z,22.02
2022-12-05T12:47:28.920Z,21.17
2022-12-05T12:50:08.521Z,19.30
2022-12-05T12:53:09.348Z,17.73
2022-12-05T12:56:05.941Z,19.40
2022-12-05T12:58:59.849Z,18.63
2022-12-05T13:01:42.388Z,21.42
2022-12-05T13:04:18.568Z,18.95
2022-12-05T13:07:01.403Z,17.40
2022-12-05T13:10:00.908Z,17.73
2022-12-05T13:12:37.548Z,20.17
2022-12-05T13:15:13.539Z,22.20
2022-12-05T13:17:43.978Z,18.85
2022-12-05T13:20:17.727Z,18.00
2022-12-05T13:25:16.109Z,16.27
2022-12-05T13:27:56.085Z,14.77
2022-12-05T13:30:28.170Z,16.38
2022-12-05T13:32:58.398Z,15.25
2022-12-05T13:35:53.529Z,17.50
2022-12-05T13:38:48.063Z,15.13
2022-12-05T13:41:35.390Z,17.13
2022-12-05T13:44:12.543Z,15.88
2022-12-05T13:46:43.368Z,19.90
2022-12-05T13:49:19.898Z,26.98
2022-12-05T13:51:47.609Z,34.88
2022-12-05T13:54:29.647Z,29.35
2022-12-05T13:57:02.257Z,31.80
2022-12-05T14:00:00.652Z,32.40
2022-12-05T14:02:43.825Z,30.88
2022-12-05T14:05:14.239Z,34.22
2022-12-05T14:07:44.952Z,35.88
2022-12-05T14:10:24.059Z,32.85
2022-12-05T14:12:57.703Z,30.42
2022-12-05T14:15:25.971Z,28.95
2022-12-05T14:18:26.648Z,30.55
2022-12-05T14:21:03.026Z,25.55
2022-12-05T14:23:55.507Z,26.83
2022-12-05T14:26:32.932Z,30.27
2022-12-05T14:29:12.628Z,26.60
2022-12-05T14:32:04.016Z,24.90
2022-12-05T14:34:35.119Z,26.20
2022-12-05T14:37:02.608Z,24.67
2022-12-05T14:39:50.355Z,24.30
2022-12-05T14:42:50.126Z,27.70
2022-12-05T14:45:48.113Z,24.08
2022-12-05T14:48:15.650Z,23.02
2022-12-05T14:50:48.789Z,25.83
2022-12-05T14:53:22.088Z,26.35
2022-12-05T14:56:16.503Z,27.60
2022-12-05T15:01:35.875Z,26.67
2022-12-05T15:04:12.658Z,28.95
2022-12-05T15:06:52.956Z,24.92
2022-12-05T15:09:37.338Z,30.70
2022-12-05T15:12:12.515Z,25.30
2022-12-05T15:14:50.380Z,27.25
2022-12-05T15:17:25.719Z,24.60
2022-12-05T15:20:04.019Z,22.55
2022-12-05T15:22:37.760Z,23.50
2022-12-05T15:25:33.700Z,25.92
2022-12-05T15:28:17.660Z,22.05
2022-12-05T15:30:55.570Z,19.95
2022-12-05T15:33:26.596Z,21.25
2022-12-05T15:35:55.919Z,20.30
2022-12-05T15:38:27.817Z,22.13
2022-12-05T15:40:55.769Z,19.23
2022-12-05T15:43:34.410Z,19.48
2022-12-05T15:46:26.110Z,19.00
2022-12-05T15:48:56.485Z,20.67
2022-12-05T15:51:32.523Z,23.70
2022-12-05T15:54:14.240Z,23.88
2022-12-05T15:56:50.789Z,23.20
2022-12-05T15:59:27.990Z,24.00
2022-12-05T16:02:04.614Z,23.33
2022-12-05T16:04:43.500Z,23.00
2022-12-05T16:07:13.779Z,21.80
2022-12-05T16:09:43.466Z,19.63
2022-12-05T16:12:31.129Z,19.92
2022-12-05T16:15:03.563Z,19.15
2022-12-05T16:17:40.892Z,18.48
2022-12-05T16:20:32.937Z,18.92
2022-12-05T16:23:04.564Z,20.52
2022-12-05T16:25:34.720Z,18.13
2022-12-05T16:28:15.898Z,30.23
2022-12-05T16:31:02.539Z,27.02
2022-12-05T16:33:31.638Z,26.20
2022-12-05T16:36:19.379Z,25.48
2022-12-05T16:38:47.052Z,28.75
2022-12-05T16:41:16.357Z,26.88
2022-12-05T16:43:46.082Z,29.02
2022-12-05T16:46:13.685Z,29.10
2022-12-05T16:48:47.630Z,27.58
2022-12-05T16:51:19.514Z,28.63
2022-12-05T16:53:50.293Z,28.52
2022-12-05T16:56:26.591Z,26.23
2022-12-05T16:58:54.496Z,31.08
2022-12-05T17:01:27.424Z,35.03
2022-12-05T17:03:56.079Z,31.67
2022-12-05T17:06:25.111Z,30.75
2022-12-05T17:08:54.590Z,37.67
2022-12-05T17:11:34.269Z,37.45
2022-12-05T17:14:02.799Z,38.60
2022-12-05T17:16:30.344Z,50.05
2022-12-05T17:18:57.958Z,59.25
2022-12-05T17:21:29.800Z,58.60
2022-12-05T17:23:57.390Z,45.15
2022-12-05T17:26:24.847Z,39.33
2022-12-05T17:28:52.350Z,45.55
2022-12-05T17:31:22.073Z,47.67
2022-12-05T17:33:51.771Z,49.63
2022-12-05T17:36:22.025Z,43.00
2022-12-05T17:38:50.064Z,41.03
2022-12-05T17:41:24.570Z,37.55
2022-12-05T17:43:52.307Z,40.50
2022-12-05T17:46:22.716Z,42.40
2022-12-05T17:48:51.712Z,42.83
2022-12-05T17:51:20.379Z,41.67
2022-12-05T17:53:47.944Z,40.20
2022-12-05T17:56:16.175Z,44.00
2022-12-05T17:58:43.960Z,40.47
2022-12-05T18:01:15.980Z,40.53
2022-12-05T18:03:43.940Z,40.85
2022-12-05T18:06:11.750Z,44.85
2022-12-05T18:08:40.170Z,40.47
2022-12-05T18:11:07.859Z,37.67
2022-12-05T18:13:35.466Z,42.78
2022-12-05T18:16:03.237Z,39.08
2022-12-05T18:18:30.902Z,36.35
2022-12-05T18:21:12.480Z,35.58
2022-12-05T18:23:40.979Z,38.92
2022-12-05T18:26:10.700Z,34.35
2022-12-05T18:28:39.434Z,29.95
2022-12-05T18:31:14.439Z,30.98
2022-12-05T18:33:44.087Z,35.03
2022-12-05T18:36:15.711Z,34.10
2022-12-05T18:38:49.190Z,34.97
2022-12-05T18:41:16.716Z,32.78
2022-12-05T18:43:44.159Z,36.03
2022-12-05T18:46:11.925Z,33.25
2022-12-05T18:48:42.722Z,33.03
2022-12-05T18:51:22.038Z,31.95
2022-12-05T18:53:52.657Z,28.48
2022-12-05T18:56:27.199Z,38.65
2022-12-05T18:59:05.880Z,28.80
2022-12-05T19:01:35.968Z,32.10
2022-12-05T19:04:06.533Z,37.20
2022-12-05T19:06:36.868Z,32.97
2022-12-05T19:09:08.255Z,37.75
2022-12-05T19:11:36.239Z,35.60
2022-12-05T19:14:05.348Z,36.95
2022-12-05T19:16:35.027Z,30.88
2022-12-05T19:19:05.460Z,26.83
2022-12-05T19:21:35.050Z,26.92
2022-12-05T19:24:04.938Z,30.45
2022-12-05T19:26:33.369Z,32.22
2022-12-05T19:29:01.138Z,30.75
2022-12-05T19:31:29.998Z,27.23
2022-12-05T19:34:01.939Z,28.13
2022-12-05T19:36:41.158Z,30.20
2022-12-05T19:39:20.624Z,31.63
2022-12-05T19:41:49.316Z,34.05
2022-12-05T19:44:17.625Z,40.33
2022-12-05T19:46:45.720Z,40.13
2022-12-05T19:49:14.747Z,38.95
2022-12-05T19:51:43.079Z,35.95
2022-12-05T19:54:13.217Z,38.47
2022-12-05T19:56:41.113Z,35.13
2022-12-05T19:59:08.750Z,32.40
2022-12-05T20:01:39.023Z,37.47
2022-12-05T20:04:12.401Z,31.13
2022-12-05T20:06:43.379Z,33.08
2022-12-05T20:09:12.753Z,28.80
2022-12-05T20:11:42.250Z,33.17
2022-12-05T20:14:11.259Z,32.55
2022-12-05T20:16:38.874Z,31.05
2022-12-05T20:19:06.684Z,22.08
2022-12-05T20:21:35.681Z,25.05
2022-12-05T20:24:05.066Z,25.10
2022-12-05T20:26:36.179Z,25.60
2022-12-05T20:29:05.071Z,25.63
2022-12-05T20:31:35.599Z,25.67
2022-12-05T20:34:04.646Z,30.08
2022-12-05T20:36:34.746Z,28.42
2022-12-05T20:39:05.539Z,28.85
2022-12-05T20:41:33.759Z,24.55
2022-12-05T20:44:03.639Z,27.38
2022-12-05T20:46:32.408Z,30.00
2022-12-05T20:49:00.262Z,28.00
2022-12-05T20:51:30.838Z,31.70
2022-12-05T20:54:00.219Z,25.45
2022-12-05T20:56:29.784Z,24.33
2022-12-05T20:59:00.348Z,23.38
2022-12-05T21:01:29.529Z,23.23
2022-12-05T21:03:57.768Z,22.05
2022-12-05T21:06:27.930Z,27.05
2022-12-05T21:08:56.258Z,22.10
2022-12-05T21:11:25.628Z,22.83
2022-12-05T21:13:56.139Z,25.83
2022-12-05T21:16:24.497Z,23.00
2022-12-05T21:18:53.020Z,19.88
2022-12-05T21:21:23.249Z,22.15
2022-12-05T21:24:00.349Z,24.58
2022-12-05T21:26:30.080Z,20.10
2022-12-05T21:28:58.929Z,20.08
2022-12-05T21:31:30.105Z,22.17
2022-12-05T21:34:03.400Z,23.25
2022-12-05T21:36:33.205Z,17.77
2022-12-05T21:39:01.040Z,18.52
2022-12-05T21:41:28.620Z,21.38
2022-12-05T21:43:56.477Z,20.55
2022-12-05T21:46:25.513Z,19.33
2022-12-05T21:48:53.722Z,16.92
2022-12-05T21:51:21.981Z,20.83
2022-12-05T21:53:50.198Z,21.63
2022-12-05T21:56:19.924Z,20.50
2022-12-05T21:58:47.488Z,19.33
2022-12-05T22:01:20.679Z,19.33
2022-12-05T22:03:51.790Z,19.73
2022-12-05T22:06:19.717Z,17.80
2022-12-05T22:08:47.540Z,18.05
2022-12-05T22:11:21.002Z,18.98
2022-12-05T22:13:49.404Z,15.65
2022-12-05T22:16:17.739Z,16.65
2022-12-05T22:18:45.790Z,15.80
2022-12-05T22:21:21.257Z,13.60
2022-12-05T22:23:49.838Z,17.08
2022-12-05T22:26:25.208Z,13.55
2022-12-05T22:28:54.909Z,14.65
2022-12-05T22:31:23.604Z,14.35
2022-12-05T22:33:51.389Z,13.60
2022-12-05T22:36:20.011Z,12.57
2022-12-05T22:38:48.905Z,12.90
2022-12-05T22:41:25.222Z,12.70
2022-12-05T22:43:59.013Z,12.63
2022-12-05T22:48:54.970Z,12.05
2022-12-05T22:51:23.561Z,11.57
2022-12-05T22:53:52.531Z,11.82
2022-12-05T22:56:22.166Z,11.50
2022-12-05T22:58:53.135Z,14.57
2022-12-05T23:01:27.478Z,11.30
2022-12-05T23:04:00.942Z,10.05
2022-12-05T23:06:30.148Z,10.70
2022-12-05T23:08:58.597Z,11.38
2022-12-05T23:11:26.960Z,11.80
2022-12-05T23:14:01.495Z,10.50
2022-12-05T23:16:32.262Z,11.38
2022-12-05T23:19:03.458Z,10.93
2022-12-05T23:21:32.246Z,11.15
2022-12-05T23:24:02.177Z,11.20
2022-12-05T23:26:38.348Z,11.35
2022-12-05T23:29:06.420Z,9.40
2022-12-05T23:31:34.530Z,10.70
2022-12-05T23:34:03.885Z,11.98
2022-12-05T23:36:33.381Z,10.52
2022-12-05T23:39:01.939Z,11.20
2022-12-05T23:41:29.639Z,10.05
2022-12-05T23:43:58.067Z,10.80
2022-12-05T23:46:28.126Z,10.18
2022-12-05T23:48:56.046Z,10.55
2022-12-05T23:51:26.050Z,10.43
2022-12-05T23:53:56.834Z,11.20
2022-12-05T23:56:27.147Z,10.68
2022-12-05T23:58:55.888Z,13.02
